Time;durP1;ratioP1;P1;durP2;ratioP2;P2;SDS_P1;SDS_P2;PMS_P1;PMS_P2;Temp;Humidity;BMP_temperature;BMP_pressure;BME280_temperature;BME280_humidity;BME280_pressure;Samples;Min_cycle;Max_cycle;Signal;HPM_P1;HPM_P2
2022/05/04 00:02:27;;;;;;;2.03;1.60;;;;;;;;;;5011317;28;20198;-62
2022/05/04 00:04:57;;;;;;;1.80;1.70;;;;;;;;;;5016424;28;20454;-62
2022/05/04 00:07:29;;;;;;;2.40;1.80;;;;;;;;;;5007764;28;20274;-63
2022/05/04 00:10:01;;;;;;;2.30;1.53;;;;;;;;;;5023736;28;20261;-63
2022/05/04 00:12:32;;;;;;;1.80;1.70;;;;;;;;;;5026058;28;20597;-62
2022/05/04 00:14:59;;;;;;;2.10;1.70;;;;;;;;;;5010002;28;20204;-63
2022/05/04 00:17:27;;;;;;;2.37;1.63;;;;;;;;;;5001230;28;20816;-63
2022/05/04 00:19:54;;;;;;;1.93;1.70;;;;;;;;;;5022385;28;20194;-62
2022/05/04 00:22:22;;;;;;;1.83;1.57;;;;;;;;;;5010267;28;20197;-62
2022/05/04 00:24:49;;;;;;;2.10;1.80;;;;;;;;;;5009409;28;20247;-62
2022/05/04 00:27:16;;;;;;;1.77;1.67;;;;;;;;;;5007588;28;20215;-62
2022/05/04 00:29:44;;;;;;;3.20;1.87;;;;;;;;;;5016875;28;20203;-62
2022/05/04 00:32:12;;;;;;;1.80;1.63;;;;;;;;;;5026566;28;20590;-62
2022/05/04 00:34:40;;;;;;;1.70;1.50;;;;;;;;;;5027667;28;20202;-62
2022/05/04 00:37:07;;;;;;;1.70;1.60;;;;;;;;;;5024549;28;20276;-62
2022/05/04 00:39:34;;;;;;;2.10;1.57;;;;;;;;;;5026769;28;20515;-62
2022/05/04 00:42:12;;;;;;;2.00;1.80;;;;;;;;;;5024892;28;20448;-62
2022/05/04 00:44:45;;;;;;;1.57;1.43;;;;;;;;;;5016914;28;20199;-62
2022/05/04 00:47:18;;;;;;;2.40;1.30;;;;;;;;;;5007260;28;20182;-62
2022/05/04 00:49:48;;;;;;;1.60;1.47;;;;;;;;;;4998902;28;20265;-62
2022/05/04 00:52:17;;;;;;;2.80;1.57;;;;;;;;;;5028065;28;20382;-62
2022/05/04 00:54:45;;;;;;;3.23;1.70;;;;;;;;;;5018543;28;20195;-62
2022/05/04 00:57:13;;;;;;;1.70;1.40;;;;;;;;;;5007229;28;20192;-62
2022/05/04 00:59:40;;;;;;;2.23;1.57;;;;;;;;;;5018822;28;20695;-62
2022/05/04 01:02:07;;;;;;;1.73;1.43;;;;;;;;;;5022829;28;20285;-62
2022/05/04 01:04:34;;;;;;;2.13;1.57;;;;;;;;;;5018212;28;20207;-62
2022/05/04 01:07:01;;;;;;;1.77;1.57;;;;;;;;;;5006371;28;20199;-62
2022/05/04 01:09:30;;;;;;;1.90;1.50;;;;;;;;;;5014191;28;20544;-62
2022/05/04 01:12:00;;;;;;;1.97;1.63;;;;;;;;;;5005969;28;20225;-62
2022/05/04 01:14:27;;;;;;;1.37;1.27;;;;;;;;;;5010234;28;20698;-62
2022/05/04 01:16:59;;;;;;;2.87;1.53;;;;;;;;;;5007499;28;20204;-62
2022/05/04 01:19:31;;;;;;;2.63;1.70;;;;;;;;;;5010543;28;20188;-62
2022/05/04 01:22:02;;;;;;;1.77;1.53;;;;;;;;;;5004285;28;20285;-62
2022/05/04 01:24:37;;;;;;;2.40;1.60;;;;;;;;;;5012858;28;20222;-62
2022/05/04 01:27:11;;;;;;;2.30;1.30;;;;;;;;;;5026667;28;20203;-62
2022/05/04 01:29:42;;;;;;;1.90;1.30;;;;;;;;;;5009747;28;20632;-62
2022/05/04 01:32:19;;;;;;;1.93;1.50;;;;;;;;;;5008346;28;20223;-62
2022/05/04 01:34:50;;;;;;;2.73;1.60;;;;;;;;;;5015904;28;20198;-62
2022/05/04 01:37:22;;;;;;;1.73;1.37;;;;;;;;;;5023793;28;20261;-62
2022/05/04 01:39:54;;;;;;;2.17;1.40;;;;;;;;;;5023751;28;20202;-62
2022/05/04 01:42:26;;;;;;;2.10;1.50;;;;;;;;;;5027139;28;20261;-62
2022/05/04 01:44:56;;;;;;;1.40;1.23;;;;;;;;;;5022801;28;20680;-62
2022/05/04 01:47:26;;;;;;;1.97;1.60;;;;;;;;;;5009363;28;20203;-62
2022/05/04 01:49:58;;;;;;;1.30;1.20;;;;;;;;;;5021586;28;20207;-62
2022/05/04 01:52:30;;;;;;;1.47;1.17;;;;;;;;;;5027014;28;20808;-62
2022/05/04 01:55:01;;;;;;;1.93;1.40;;;;;;;;;;5026348;28;20306;-62
2022/05/04 01:57:29;;;;;;;1.90;1.43;;;;;;;;;;5011489;28;20211;-62
2022/05/04 01:59:58;;;;;;;2.60;1.50;;;;;;;;;;5025432;28;20204;-61
2022/05/04 02:02:35;;;;;;;1.73;1.27;;;;;;;;;;5011109;28;20210;-62
2022/05/04 02:05:18;;;;;;;1.77;1.40;;;;;;;;;;4995826;28;20214;-62
2022/05/04 02:07:52;;;;;;;2.63;1.30;;;;;;;;;;4989032;28;20221;-62
2022/05/04 02:10:29;;;;;;;2.00;1.60;;;;;;;;;;5001537;28;20583;-62
2022/05/04 02:13:01;;;;;;;2.60;1.60;;;;;;;;;;5004624;28;20234;-62
2022/05/04 02:15:33;;;;;;;1.53;1.30;;;;;;;;;;4995503;28;20203;-62
2022/05/04 02:18:03;;;;;;;2.97;1.43;;;;;;;;;;4987548;28;20192;-62
2022/05/04 02:20:33;;;;;;;1.30;1.20;;;;;;;;;;5000089;28;20215;-62
2022/05/04 02:23:05;;;;;;;1.37;1.23;;;;;;;;;;5010592;28;20762;-62
2022/05/04 02:25:36;;;;;;;1.67;1.40;;;;;;;;;;5007603;28;20215;-62
2022/05/04 02:28:05;;;;;;;1.23;1.10;;;;;;;;;;5006664;28;20740;-62
2022/05/04 02:30:36;;;;;;;3.63;1.43;;;;;;;;;;4992790;28;20210;-62
2022/05/04 02:33:03;;;;;;;2.53;1.53;;;;;;;;;;5010119;28;20199;-62
2022/05/04 02:38:21;;;;;;;2.47;1.40;;;;;;;;;;4990022;28;20502;-61
2022/05/04 02:40:49;;;;;;;3.03;1.70;;;;;;;;;;5000708;28;20207;-62
2022/05/04 02:43:16;;;;;;;1.80;1.50;;;;;;;;;;5004052;28;20200;-62
2022/05/04 02:45:43;;;;;;;1.67;1.30;;;;;;;;;;4997247;28;20278;-61
2022/05/04 02:48:10;;;;;;;2.90;1.33;;;;;;;;;;5007634;28;20212;-62
2022/05/04 02:50:37;;;;;;;1.90;1.40;;;;;;;;;;5009564;28;20331;-62
2022/05/04 02:53:05;;;;;;;2.00;1.30;;;;;;;;;;4993720;28;20204;-62
2022/05/04 02:55:32;;;;;;;2.30;1.50;;;;;;;;;;4997328;28;20199;-62
2022/05/04 02:58:00;;;;;;;1.40;1.30;;;;;;;;;;5006657;28;20192;-62
2022/05/04 03:00:28;;;;;;;2.00;1.30;;;;;;;;;;5010250;28;20239;-62
2022/05/04 03:02:57;;;;;;;1.97;1.23;;;;;;;;;;4999205;28;20201;-62
2022/05/04 03:05:25;;;;;;;1.70;1.20;;;;;;;;;;5000471;28;20249;-62
2022/05/04 03:07:52;;;;;;;2.03;1.30;;;;;;;;;;5014496;28;20254;-62
2022/05/04 03:10:19;;;;;;;1.87;1.20;;;;;;;;;;5013657;28;20195;-62
2022/05/04 03:12:46;;;;;;;1.83;1.40;;;;;;;;;;5016299;28;20236;-62
2022/05/04 03:15:14;;;;;;;2.70;1.20;;;;;;;;;;4993948;28;20198;-62
2022/05/04 03:17:42;;;;;;;2.07;1.57;;;;;;;;;;4989066;28;20253;-62
2022/05/04 03:20:11;;;;;;;2.20;1.20;;;;;;;;;;4991954;28;20626;-62
2022/05/04 03:22:39;;;;;;;1.13;1.03;;;;;;;;;;5028976;28;20207;-62
2022/05/04 03:25:07;;;;;;;2.27;1.50;;;;;;;;;;5026318;28;20195;-62
2022/05/04 03:27:34;;;;;;;2.03;1.57;;;;;;;;;;5028408;28;20175;-62
2022/05/04 03:30:03;;;;;;;1.30;1.20;;;;;;;;;;5026786;28;20370;-62
2022/05/04 03:32:30;;;;;;;1.33;1.10;;;;;;;;;;4989080;28;20209;-62
2022/05/04 03:34:57;;;;;;;2.60;1.30;;;;;;;;;;4972674;28;20250;-62
2022/05/04 03:37:24;;;;;;;1.90;1.60;;;;;;;;;;5024514;28;20241;-61
2022/05/04 03:39:51;;;;;;;1.40;1.00;;;;;;;;;;5025115;28;20241;-62
2022/05/04 03:42:19;;;;;;;2.47;1.60;;;;;;;;;;5027362;28;20187;-62
2022/05/04 03:44:46;;;;;;;1.63;1.37;;;;;;;;;;4991607;28;20211;-62
2022/05/04 03:47:13;;;;;;;1.43;0.97;;;;;;;;;;5024505;28;20203;-62
2022/05/04 03:49:40;;;;;;;1.60;1.40;;;;;;;;;;5025847;28;20207;-61
2022/05/04 03:52:09;;;;;;;1.30;1.20;;;;;;;;;;5028554;28;20215;-62
2022/05/04 03:54:36;;;;;;;1.30;1.20;;;;;;;;;;5020772;28;20618;-61
2022/05/04 03:57:05;;;;;;;2.10;1.30;;;;;;;;;;5020173;28;20192;-61
2022/05/04 03:59:39;;;;;;;1.87;1.50;;;;;;;;;;5008312;28;20203;-61
2022/05/04 04:02:07;;;;;;;1.33;1.20;;;;;;;;;;5010504;28;20665;-62
2022/05/04 04:04:40;;;;;;;2.23;1.27;;;;;;;;;;5008768;28;20264;-62
2022/05/04 04:07:10;;;;;;;1.73;1.30;;;;;;;;;;5029414;28;20261;-61
2022/05/04 04:09:41;;;;;;;1.73;1.30;;;;;;;;;;5010253;28;20204;-62
2022/05/04 04:12:11;;;;;;;1.60;1.30;;;;;;;;;;5010279;28;20243;-61
2022/05/04 04:14:42;;;;;;;2.03;1.40;;;;;;;;;;5008367;28;20287;-61
2022/05/04 04:17:15;;;;;;;2.33;1.27;;;;;;;;;;5014010;28;20206;-61
2022/05/04 04:21:50;;;;;;;2.07;1.27;;;;;;;;;;5024453;28;20199;-61
2022/05/04 04:22:36;;;;;;;1.67;1.20;;;;;;;;;;5024701;28;20633;-62
2022/05/04 04:25:07;;;;;;;2.20;1.30;;;;;;;;;;5025260;28;20230;-61
2022/05/04 04:27:37;;;;;;;2.00;1.17;;;;;;;;;;5026522;28;20198;-61
2022/05/04 04:30:04;;;;;;;1.67;1.10;;;;;;;;;;5024498;28;20191;-62
2022/05/04 04:32:32;;;;;;;2.13;1.20;;;;;;;;;;5026722;28;20234;-62
2022/05/04 04:35:06;;;;;;;1.30;1.07;;;;;;;;;;5027207;28;20202;-62
2022/05/04 04:37:34;;;;;;;2.03;1.10;;;;;;;;;;5024678;28;20218;-62
2022/05/04 04:40:01;;;;;;;2.80;1.60;;;;;;;;;;5024669;28;20203;-61
2022/05/04 04:42:28;;;;;;;1.67;1.20;;;;;;;;;;5007791;28;20202;-62
2022/05/04 04:44:55;;;;;;;2.50;1.30;;;;;;;;;;5007707;28;20199;-61
2022/05/04 04:47:22;;;;;;;1.80;1.30;;;;;;;;;;5019114;28;20244;-61
2022/05/04 04:49:49;;;;;;;1.33;1.00;;;;;;;;;;5004878;28;20253;-62
2022/05/04 04:52:17;;;;;;;1.33;1.13;;;;;;;;;;5027113;28;20211;-62
2022/05/04 04:54:45;;;;;;;2.13;1.20;;;;;;;;;;5018350;28;20259;-62
2022/05/04 04:57:15;;;;;;;2.23;1.40;;;;;;;;;;5016776;28;20194;-61
2022/05/04 04:59:50;;;;;;;2.07;1.20;;;;;;;;;;5021942;28;20217;-61
2022/05/04 05:02:22;;;;;;;1.73;1.10;;;;;;;;;;5026411;28;20253;-61
2022/05/04 05:04:52;;;;;;;2.30;1.33;;;;;;;;;;5020227;28;20251;-61
2022/05/04 05:07:24;;;;;;;2.93;1.20;;;;;;;;;;5010636;28;20646;-61
2022/05/04 05:09:56;;;;;;;1.83;1.40;;;;;;;;;;5004772;28;20273;-62
2022/05/04 05:12:28;;;;;;;2.07;1.10;;;;;;;;;;5015134;28;20250;-61
2022/05/04 05:17:47;;;;;;;2.50;1.33;;;;;;;;;;5017961;28;20191;-61
2022/05/04 05:20:17;;;;;;;2.30;1.13;;;;;;;;;;5027689;28;20199;-61
2022/05/04 05:22:49;;;;;;;2.33;1.40;;;;;;;;;;5026802;28;20199;-61
2022/05/04 05:25:16;;;;;;;1.37;1.23;;;;;;;;;;5025000;28;20280;-61
2022/05/04 05:27:46;;;;;;;2.27;1.20;;;;;;;;;;5025427;28;20193;-61
2022/05/04 05:30:15;;;;;;;1.57;1.20;;;;;;;;;;5030641;28;20206;-61
2022/05/04 05:32:46;;;;;;;1.83;1.50;;;;;;;;;;5030583;28;20227;-61
2022/05/04 05:35:15;;;;;;;1.40;1.10;;;;;;;;;;5030921;28;20207;-61
2022/05/04 05:37:44;;;;;;;2.00;1.20;;;;;;;;;;5025428;28;20218;-60
2022/05/04 05:40:19;;;;;;;2.80;1.40;;;;;;;;;;5031256;28;20534;-61
2022/05/04 05:42:54;;;;;;;1.20;1.10;;;;;;;;;;5025686;28;20607;-61
2022/05/04 05:45:26;;;;;;;2.03;1.20;;;;;;;;;;5011274;28;20199;-62
2022/05/04 05:47:54;;;;;;;1.43;1.10;;;;;;;;;;4998236;28;20209;-62
2022/05/04 05:50:24;;;;;;;1.97;1.30;;;;;;;;;;5013391;28;20214;-61
2022/05/04 05:52:54;;;;;;;1.73;1.20;;;;;;;;;;5020582;28;20231;-61
2022/05/04 05:55:26;;;;;;;1.37;1.03;;;;;;;;;;5016573;28;20282;-61
2022/05/04 05:57:55;;;;;;;2.63;1.30;;;;;;;;;;5017959;28;20199;-61
2022/05/04 06:00:24;;;;;;;1.30;1.00;;;;;;;;;;5027551;28;20241;-62
2022/05/04 06:02:54;;;;;;;2.67;1.40;;;;;;;;;;5020155;28;20237;-61
2022/05/04 06:05:27;;;;;;;1.57;1.20;;;;;;;;;;5013260;28;20195;-61
2022/05/04 06:07:56;;;;;;;2.23;1.20;;;;;;;;;;5024842;28;20218;-62
2022/05/04 06:10:29;;;;;;;1.90;1.38;;;;;;;;;;5030426;28;20427;-62
2022/05/04 06:12:59;;;;;;;2.53;1.53;;;;;;;;;;5023099;28;20242;-62
2022/05/04 06:15:32;;;;;;;2.30;1.23;;;;;;;;;;5004118;28;20196;-62
2022/05/04 06:18:12;;;;;;;1.73;1.27;;;;;;;;;;5009224;28;20226;-62
2022/05/04 06:20:45;;;;;;;2.27;1.40;;;;;;;;;;5012613;28;20211;-63
2022/05/04 06:23:16;;;;;;;2.37;1.20;;;;;;;;;;5030133;28;20604;-62
2022/05/04 06:25:46;;;;;;;1.80;1.10;;;;;;;;;;5022836;28;20211;-62
2022/05/04 06:28:16;;;;;;;2.40;1.40;;;;;;;;;;5028662;28;20261;-62
2022/05/04 06:36:25;;;;;;;1.47;0.93;;;;;;;;;;5026532;28;20280;-62
2022/05/04 06:38:54;;;;;;;1.77;1.23;;;;;;;;;;5028714;28;20215;-62
2022/05/04 06:41:27;;;;;;;2.00;1.13;;;;;;;;;;5028251;28;20191;-62
2022/05/04 06:44:00;;;;;;;1.20;1.10;;;;;;;;;;5026070;28;20199;-62
2022/05/04 06:46:29;;;;;;;1.90;1.13;;;;;;;;;;5012362;28;20589;-61
2022/05/04 06:48:59;;;;;;;2.10;1.10;;;;;;;;;;5022697;28;20221;-62
2022/05/04 06:51:30;;;;;;;1.30;1.20;;;;;;;;;;5012849;28;20195;-62
2022/05/04 06:54:00;;;;;;;2.80;1.20;;;;;;;;;;5024303;28;20222;-62
2022/05/04 06:56:53;;;;;;;1.73;1.30;;;;;;;;;;5009500;28;20195;-62
2022/05/04 06:59:26;;;;;;;2.43;1.40;;;;;;;;;;5025736;28;20710;-62
2022/05/04 07:01:57;;;;;;;1.77;1.40;;;;;;;;;;5009382;28;20246;-63
2022/05/04 07:04:26;;;;;;;2.47;1.53;;;;;;;;;;5026070;28;20923;-62
2022/05/04 07:06:56;;;;;;;2.00;1.80;;;;;;;;;;5026201;28;20223;-63
2022/05/04 07:09:24;;;;;;;1.80;1.40;;;;;;;;;;5024381;28;20183;-62
2022/05/04 07:11:58;;;;;;;2.80;1.23;;;;;;;;;;5023705;28;20198;-62
2022/05/04 07:14:27;;;;;;;2.43;1.30;;;;;;;;;;5028100;28;20608;-63
2022/05/04 07:16:55;;;;;;;1.80;1.30;;;;;;;;;;5011688;28;20589;-62
2022/05/04 07:19:25;;;;;;;1.87;1.27;;;;;;;;;;5023348;28;20210;-62
2022/05/04 07:21:57;;;;;;;1.97;1.50;;;;;;;;;;5026790;28;20195;-62
2022/05/04 07:24:34;;;;;;;1.33;1.20;;;;;;;;;;5026821;28;20289;-62
2022/05/04 07:27:08;;;;;;;2.20;1.63;;;;;;;;;;5028968;28;20172;-62
2022/05/04 07:29:38;;;;;;;1.20;1.10;;;;;;;;;;5028792;28;20206;-62
2022/05/04 07:32:11;;;;;;;1.73;1.50;;;;;;;;;;5026958;28;20183;-61
2022/05/04 07:34:43;;;;;;;2.90;1.10;;;;;;;;;;5028525;28;20202;-62
2022/05/04 07:37:15;;;;;;;2.27;1.50;;;;;;;;;;5026627;28;20206;-63
2022/05/04 07:42:40;;;;;;;2.13;1.50;;;;;;;;;;5025500;28;20191;-62
2022/05/04 07:45:15;;;;;;;1.83;1.40;;;;;;;;;;5009750;28;20226;-62
2022/05/04 07:47:42;;;;;;;2.03;1.43;;;;;;;;;;4991456;28;20188;-62
2022/05/04 07:50:12;;;;;;;1.37;1.13;;;;;;;;;;5024753;28;20354;-63
2022/05/04 07:52:43;;;;;;;2.23;1.47;;;;;;;;;;4995456;28;20207;-63
2022/05/04 07:55:13;;;;;;;1.67;1.20;;;;;;;;;;5014058;28;20203;-62
2022/05/04 07:57:48;;;;;;;1.83;1.30;;;;;;;;;;5006134;28;20560;-61
2022/05/04 08:06:05;;;;;;;1.77;1.23;;;;;;;;;;5016234;28;20258;-62
2022/05/04 08:08:37;;;;;;;2.20;1.40;;;;;;;;;;5010868;28;20191;-62
2022/05/04 08:11:08;;;;;;;1.70;1.33;;;;;;;;;;4993584;28;20206;-63
2022/05/04 08:13:37;;;;;;;2.07;1.20;;;;;;;;;;5009256;28;20215;-63
2022/05/04 08:16:13;;;;;;;2.37;1.53;;;;;;;;;;5009793;28;20196;-63
2022/05/04 08:18:43;;;;;;;1.80;1.40;;;;;;;;;;5011199;28;20210;-63
2022/05/04 08:21:15;;;;;;;2.37;1.30;;;;;;;;;;5027873;28;20195;-63
2022/05/04 08:23:45;;;;;;;1.47;1.30;;;;;;;;;;5023745;28;20226;-63
2022/05/04 08:26:13;;;;;;;2.57;1.73;;;;;;;;;;5004510;28;20252;-62
2022/05/04 08:28:42;;;;;;;1.83;1.70;;;;;;;;;;5010107;28;20677;-62
2022/05/04 08:31:10;;;;;;;2.73;1.50;;;;;;;;;;5027274;28;20784;-62
2022/05/04 08:33:39;;;;;;;3.00;1.60;;;;;;;;;;5027382;28;20643;-62
2022/05/04 08:36:07;;;;;;;2.47;1.20;;;;;;;;;;5013913;28;20210;-63
2022/05/04 08:38:37;;;;;;;4.40;1.63;;;;;;;;;;5007828;28;20192;-63
2022/05/04 08:41:04;;;;;;;2.63;1.57;;;;;;;;;;5020812;28;20203;-63
2022/05/04 08:43:34;;;;;;;1.60;1.50;;;;;;;;;;5007638;28;20684;-63
2022/05/04 08:46:06;;;;;;;2.20;1.40;;;;;;;;;;5005399;28;20195;-62
2022/05/04 08:48:43;;;;;;;1.83;1.33;;;;;;;;;;5005350;28;20211;-63
2022/05/04 08:51:15;;;;;;;2.83;1.53;;;;;;;;;;5008365;28;20214;-62
2022/05/04 08:53:46;;;;;;;3.10;1.80;;;;;;;;;;5006642;28;20326;-62
2022/05/04 08:56:18;;;;;;;2.60;1.70;;;;;;;;;;5027504;28;20189;-62
2022/05/04 08:58:45;;;;;;;2.57;1.50;;;;;;;;;;5027646;28;20199;-63
2022/05/04 09:01:17;;;;;;;3.50;1.63;;;;;;;;;;4985940;28;20239;-63
2022/05/04 09:03:45;;;;;;;2.47;1.77;;;;;;;;;;4987831;28;20267;-62
2022/05/04 09:06:25;;;;;;;2.40;1.83;;;;;;;;;;5026411;28;20207;-62
2022/05/04 09:09:14;;;;;;;3.33;2.17;;;;;;;;;;5026402;28;20282;-63
2022/05/04 09:11:54;;;;;;;2.77;1.50;;;;;;;;;;5022435;28;20605;-62
2022/05/04 09:14:28;;;;;;;2.63;1.90;;;;;;;;;;5026933;28;20316;-63
2022/05/04 09:17:01;;;;;;;2.73;1.80;;;;;;;;;;5007950;28;20195;-63
2022/05/04 09:19:33;;;;;;;3.13;1.90;;;;;;;;;;5011261;28;20671;-63
2022/05/04 09:22:17;;;;;;;2.87;1.70;;;;;;;;;;5024853;28;20990;-63
2022/05/04 09:24:50;;;;;;;2.47;1.63;;;;;;;;;;5008059;28;20688;-62
2022/05/04 09:27:30;;;;;;;2.47;2.10;;;;;;;;;;5026347;28;20210;-62
2022/05/04 09:30:01;;;;;;;2.50;1.77;;;;;;;;;;5007436;28;20594;-62
2022/05/04 09:32:40;;;;;;;3.40;2.10;;;;;;;;;;4988056;28;20196;-62
2022/05/04 09:35:18;;;;;;;2.00;1.60;;;;;;;;;;5002628;28;20199;-62
2022/05/04 09:46:18;;;;;;;2.10;1.57;;;;;;;;;;5014078;28;20658;-62
2022/05/04 09:48:47;;;;;;;2.50;1.87;;;;;;;;;;5004364;28;20208;-62
2022/05/04 09:51:23;;;;;;;2.57;2.13;;;;;;;;;;5006178;28;20557;-62
2022/05/04 09:53:53;;;;;;;1.83;1.50;;;;;;;;;;5006800;28;20234;-61
2022/05/04 09:56:23;;;;;;;2.33;1.77;;;;;;;;;;5025833;28;20195;-62
2022/05/04 09:58:52;;;;;;;2.10;1.80;;;;;;;;;;5026561;28;20261;-63
2022/05/04 10:01:24;;;;;;;4.27;2.10;;;;;;;;;;5022878;28;20306;-62
2022/05/04 10:03:53;;;;;;;2.60;1.70;;;;;;;;;;5024123;28;20199;-61
2022/05/04 10:06:24;;;;;;;3.73;2.03;;;;;;;;;;5026242;28;20731;-61
2022/05/04 10:09:09;;;;;;;2.87;1.87;;;;;;;;;;5010103;28;20575;-60
2022/05/04 10:11:41;;;;;;;1.97;1.77;;;;;;;;;;5023561;28;20633;-61
2022/05/04 10:14:15;;;;;;;4.03;2.17;;;;;;;;;;5022774;28;20248;-60
2022/05/04 10:17:04;;;;;;;2.83;1.80;;;;;;;;;;5013363;28;20202;-61
2022/05/04 10:19:42;;;;;;;2.57;1.73;;;;;;;;;;5010311;28;20673;-61
2022/05/04 10:22:18;;;;;;;2.13;1.70;;;;;;;;;;5029209;28;20268;-61
2022/05/04 10:24:48;;;;;;;2.23;1.87;;;;;;;;;;5026816;28;20288;-61
2022/05/04 10:27:25;;;;;;;1.87;1.67;;;;;;;;;;5030077;28;20205;-61
2022/05/04 10:33:01;;;;;;;4.07;2.30;;;;;;;;;;5030210;28;20255;-60
2022/05/04 10:35:44;;;;;;;3.80;2.30;;;;;;;;;;5029669;28;20191;-62
2022/05/04 10:38:15;;;;;;;3.33;2.20;;;;;;;;;;5010400;28;20784;-62
2022/05/04 10:40:54;;;;;;;2.53;1.87;;;;;;;;;;5024382;28;20206;-61
2022/05/04 10:43:40;;;;;;;2.53;1.80;;;;;;;;;;5014889;28;20651;-61
2022/05/04 10:46:18;;;;;;;2.63;1.97;;;;;;;;;;5011447;28;20212;-61
2022/05/04 10:48:50;;;;;;;2.53;1.80;;;;;;;;;;5006988;28;20235;-62
2022/05/04 10:51:21;;;;;;;2.67;2.10;;;;;;;;;;5019365;28;20253;-62
2022/05/04 10:53:53;;;;;;;2.97;2.10;;;;;;;;;;5027976;28;20598;-61
2022/05/04 10:56:24;;;;;;;2.87;2.37;;;;;;;;;;5029269;28;20187;-61
2022/05/04 10:58:57;;;;;;;2.47;2.17;;;;;;;;;;5029760;28;20590;-61
2022/05/04 11:01:31;;;;;;;3.70;2.03;;;;;;;;;;4999145;28;20235;-62
2022/05/04 11:04:15;;;;;;;3.10;2.23;;;;;;;;;;5007137;28;20171;-62
2022/05/04 11:06:56;;;;;;;2.07;1.87;;;;;;;;;;5009290;28;20204;-62
2022/05/04 11:09:32;;;;;;;3.77;3.10;;;;;;;;;;4998323;28;20189;-61
2022/05/04 11:12:04;;;;;;;3.83;2.50;;;;;;;;;;5000222;28;20203;-62
2022/05/04 11:14:36;;;;;;;2.67;2.20;;;;;;;;;;4989864;28;20220;-62
2022/05/04 11:17:17;;;;;;;3.07;2.27;;;;;;;;;;4988112;28;20196;-61
2022/05/04 11:19:48;;;;;;;3.17;2.50;;;;;;;;;;4989778;28;20219;-61
2022/05/04 11:22:18;;;;;;;3.40;2.70;;;;;;;;;;4992590;28;20212;-62
2022/05/04 11:25:08;;;;;;;3.33;2.30;;;;;;;;;;4993141;28;20212;-61
2022/05/04 11:27:43;;;;;;;5.40;2.47;;;;;;;;;;5008870;28;20203;-61
2022/05/04 11:30:13;;;;;;;3.57;2.80;;;;;;;;;;5005921;28;20266;-61
2022/05/04 11:32:43;;;;;;;2.47;2.03;;;;;;;;;;5008894;28;20580;-61
2022/05/04 11:35:18;;;;;;;2.37;2.00;;;;;;;;;;5008933;28;20503;-61
2022/05/04 11:37:46;;;;;;;2.20;2.00;;;;;;;;;;5004078;28;20204;-62
2022/05/04 11:40:15;;;;;;;3.23;2.50;;;;;;;;;;4987450;28;20208;-61
2022/05/04 11:42:44;;;;;;;3.87;2.60;;;;;;;;;;4995656;28;20204;-61
2022/05/04 11:45:14;;;;;;;3.97;2.73;;;;;;;;;;4972645;28;20946;-61
2022/05/04 11:47:44;;;;;;;4.17;2.50;;;;;;;;;;5004487;28;20214;-61
2022/05/04 11:50:13;;;;;;;2.77;2.43;;;;;;;;;;4980671;28;20288;-61
2022/05/04 11:52:44;;;;;;;2.93;2.07;;;;;;;;;;5003816;28;20200;-61
2022/05/04 11:55:15;;;;;;;3.40;2.23;;;;;;;;;;4988554;28;20252;-62
2022/05/04 11:57:44;;;;;;;3.80;2.13;;;;;;;;;;4986336;28;20203;-62
2022/05/04 12:00:18;;;;;;;3.77;2.37;;;;;;;;;;5005346;28;20211;-65
2022/05/04 12:02:50;;;;;;;3.00;2.03;;;;;;;;;;5011133;28;20193;-62
2022/05/04 12:05:18;;;;;;;4.77;2.40;;;;;;;;;;5028392;28;20203;-61
2022/05/04 12:08:06;;;;;;;3.27;2.17;;;;;;;;;;5009600;28;20226;-62
2022/05/04 12:10:37;;;;;;;3.37;2.80;;;;;;;;;;4988363;28;20214;-61
2022/05/04 12:13:04;;;;;;;3.13;2.70;;;;;;;;;;5019021;28;20219;-61
2022/05/04 12:15:37;;;;;;;4.10;2.97;;;;;;;;;;5020475;28;20654;-61
2022/05/04 12:18:09;;;;;;;2.97;2.67;;;;;;;;;;5021623;28;20194;-61
2022/05/04 12:20:40;;;;;;;3.37;2.40;;;;;;;;;;5027667;28;20205;-62
2022/05/04 12:23:10;;;;;;;2.80;2.30;;;;;;;;;;5027421;28;20679;-61
2022/05/04 12:25:46;;;;;;;2.23;1.90;;;;;;;;;;5022772;28;20230;-61
2022/05/04 12:28:17;;;;;;;2.30;2.03;;;;;;;;;;5027736;28;20210;-61
2022/05/04 12:33:39;;;;;;;3.13;2.30;;;;;;;;;;4992248;28;20235;-61
2022/05/04 12:36:09;;;;;;;3.07;2.50;;;;;;;;;;4984345;28;20250;-61
2022/05/04 12:38:47;;;;;;;3.43;2.43;;;;;;;;;;5010119;28;20831;-61
2022/05/04 12:41:21;;;;;;;3.57;2.20;;;;;;;;;;5008282;28;20531;-62
2022/05/04 12:43:51;;;;;;;2.17;1.90;;;;;;;;;;4998638;28;20203;-62
2022/05/04 12:46:24;;;;;;;3.60;2.20;;;;;;;;;;5004702;28;20192;-61
2022/05/04 12:48:55;;;;;;;2.80;1.80;;;;;;;;;;5003436;28;20768;-62
2022/05/04 12:51:26;;;;;;;2.77;2.10;;;;;;;;;;5006674;28;20257;-61
2022/05/04 12:53:59;;;;;;;2.47;1.87;;;;;;;;;;5022946;28;20846;-61
2022/05/04 12:56:48;;;;;;;2.87;2.33;;;;;;;;;;5010444;28;20176;-61
2022/05/04 12:59:20;;;;;;;3.77;2.57;;;;;;;;;;4996006;28;20207;-61
2022/05/04 13:01:51;;;;;;;2.60;2.40;;;;;;;;;;5004236;28;20235;-61
2022/05/04 13:04:20;;;;;;;3.00;1.70;;;;;;;;;;5022251;28;20203;-61
2022/05/04 13:06:50;;;;;;;3.27;2.40;;;;;;;;;;5007991;28;21711;-61
2022/05/04 13:09:20;;;;;;;3.33;2.63;;;;;;;;;;4988083;28;20236;-61
2022/05/04 13:11:50;;;;;;;2.90;2.10;;;;;;;;;;5001249;28;20207;-61
2022/05/04 13:14:20;;;;;;;2.87;1.80;;;;;;;;;;5009733;28;20228;-61
2022/05/04 13:16:52;;;;;;;2.47;1.70;;;;;;;;;;4994172;28;20617;-61
2022/05/04 13:19:22;;;;;;;2.20;2.00;;;;;;;;;;4993216;28;20208;-62
2022/05/04 13:21:49;;;;;;;2.70;2.27;;;;;;;;;;5004510;28;20200;-61
2022/05/04 13:24:18;;;;;;;2.10;1.90;;;;;;;;;;5002401;28;20207;-61
2022/05/04 13:26:49;;;;;;;3.87;1.80;;;;;;;;;;4999670;28;20200;-61
2022/05/04 13:29:23;;;;;;;3.10;2.10;;;;;;;;;;4998387;28;20222;-62
2022/05/04 13:31:52;;;;;;;2.43;1.83;;;;;;;;;;5005025;28;20830;-61
2022/05/04 13:34:21;;;;;;;1.70;1.60;;;;;;;;;;5022606;28;20325;-62
2022/05/04 13:36:53;;;;;;;2.30;2.10;;;;;;;;;;5010511;28;20219;-61
2022/05/04 13:39:25;;;;;;;2.10;1.77;;;;;;;;;;5026334;28;20179;-61
2022/05/04 13:41:56;;;;;;;3.30;1.83;;;;;;;;;;5007954;28;20214;-61
2022/05/04 13:44:24;;;;;;;3.97;1.83;;;;;;;;;;5009106;28;20203;-61
2022/05/04 13:46:55;;;;;;;2.90;1.87;;;;;;;;;;5007511;28;20204;-62
2022/05/04 13:49:26;;;;;;;2.67;2.10;;;;;;;;;;5024452;28;20245;-62
2022/05/04 13:54:54;;;;;;;2.50;1.60;;;;;;;;;;4947986;28;20259;-61
2022/05/04 13:57:27;;;;;;;1.97;1.83;;;;;;;;;;4999319;28;20235;-61
2022/05/04 13:59:56;;;;;;;2.00;1.70;;;;;;;;;;5025594;28;20203;-61
2022/05/04 14:02:26;;;;;;;2.00;1.70;;;;;;;;;;5009109;28;20231;-61
2022/05/04 14:05:08;;;;;;;2.87;2.43;;;;;;;;;;5030455;28;20198;-61
2022/05/04 14:07:42;;;;;;;2.60;2.40;;;;;;;;;;5023534;28;20203;-61
2022/05/04 14:10:13;;;;;;;2.87;2.10;;;;;;;;;;5017883;28;20253;-61
2022/05/04 14:12:42;;;;;;;3.17;2.10;;;;;;;;;;5010858;28;20235;-61
2022/05/04 14:15:12;;;;;;;2.17;1.80;;;;;;;;;;5026745;28;20207;-62
2022/05/04 14:17:40;;;;;;;2.80;2.60;;;;;;;;;;5012038;28;20844;-62
2022/05/04 14:20:12;;;;;;;2.23;2.03;;;;;;;;;;5027717;28;20202;-62
2022/05/04 14:22:43;;;;;;;2.70;1.90;;;;;;;;;;5030043;28;20191;-62
2022/05/04 14:25:14;;;;;;;2.87;2.17;;;;;;;;;;5018077;28;20202;-61
2022/05/04 14:27:45;;;;;;;3.50;2.07;;;;;;;;;;5010953;28;20183;-61
2022/05/04 14:30:13;;;;;;;3.17;2.20;;;;;;;;;;4974787;28;20188;-62
2022/05/04 14:32:40;;;;;;;2.63;2.13;;;;;;;;;;4996325;28;20204;-62
2022/05/04 14:35:08;;;;;;;2.60;1.60;;;;;;;;;;5011971;28;20680;-62
2022/05/04 14:37:39;;;;;;;4.70;2.30;;;;;;;;;;5018883;28;20207;-62
2022/05/04 14:40:11;;;;;;;3.27;2.17;;;;;;;;;;5009030;28;20196;-61
2022/05/04 14:42:46;;;;;;;2.30;2.00;;;;;;;;;;5010404;28;20192;-62
2022/05/04 14:45:28;;;;;;;2.33;1.90;;;;;;;;;;4998104;28;20664;-61
2022/05/04 14:47:57;;;;;;;2.70;2.00;;;;;;;;;;5006347;28;20231;-61
2022/05/04 14:50:27;;;;;;;2.40;2.10;;;;;;;;;;5029398;28;20261;-61
2022/05/04 14:52:57;;;;;;;2.20;2.00;;;;;;;;;;5029597;28;20207;-63
2022/05/04 14:55:26;;;;;;;1.80;1.43;;;;;;;;;;5029192;28;20219;-61
2022/05/04 14:57:58;;;;;;;2.00;1.80;;;;;;;;;;5014715;28;20196;-61
2022/05/04 15:00:27;;;;;;;2.57;1.80;;;;;;;;;;5026315;28;20217;-62
2022/05/04 15:05:46;;;;;;;2.17;2.00;;;;;;;;;;4988742;28;20211;-61
2022/05/04 15:08:15;;;;;;;2.27;1.60;;;;;;;;;;5003983;28;20217;-61
2022/05/04 15:10:46;;;;;;;2.77;1.57;;;;;;;;;;5029601;28;20203;-61
2022/05/04 15:13:15;;;;;;;4.23;2.17;;;;;;;;;;5026636;28;20229;-61
2022/05/04 15:15:46;;;;;;;2.70;2.13;;;;;;;;;;5019299;28;20271;-62
2022/05/04 15:18:31;;;;;;;2.63;2.37;;;;;;;;;;5002140;28;20292;-61
2022/05/04 15:21:04;;;;;;;2.10;1.90;;;;;;;;;;4994786;28;20212;-62
2022/05/04 15:23:37;;;;;;;2.43;2.10;;;;;;;;;;4999277;28;20381;-62
2022/05/04 15:26:12;;;;;;;3.17;2.23;;;;;;;;;;5008856;28;20211;-61
2022/05/04 15:28:42;;;;;;;2.70;1.97;;;;;;;;;;5007474;28;20191;-61
2022/05/04 15:31:14;;;;;;;2.47;1.63;;;;;;;;;;5029111;28;20187;-62
2022/05/04 15:33:41;;;;;;;2.87;2.03;;;;;;;;;;5000615;28;20235;-61
2022/05/04 15:36:11;;;;;;;1.97;1.60;;;;;;;;;;5026483;28;20762;-62
2022/05/04 15:38:40;;;;;;;2.73;2.00;;;;;;;;;;5027435;28;20218;-61
2022/05/04 15:41:12;;;;;;;1.70;1.40;;;;;;;;;;5028919;28;20203;-62
2022/05/04 15:43:41;;;;;;;2.13;1.63;;;;;;;;;;5018862;28;20227;-62
2022/05/04 15:46:11;;;;;;;1.90;1.77;;;;;;;;;;5010089;28;20184;-61
2022/05/04 15:48:41;;;;;;;2.43;1.93;;;;;;;;;;5023723;28;20223;-61